Portland — WDG2201 — position and weather

sailwx.info

Track history (hours):
 
Tides and Currents Weather Stations Pressure Air Temp Water Temp Dewpoint Dewpoint Depression Visibility Wind Speed Wind Dir Waves Ship Positions

Portland

More information available from US FCC via Universal Licensing System and Coast Guard Vessel Documentation Center.

Last reported at 2014-Sep-19 22:16 UTC. Time now 2014-Sep-21 18:12 UTC.
Position N 45°38' W 122°43'.

Length 27 m; draft 4 m.

Type: Towing. MMSI: 367315814.

Date/timePositionNaut miles runAvg speedWind from/ knotsBaromVisibWave heightAir tempDewpointWater temp
2014-Sep-19 22:16N 45°38' W 122°43'0 0.4
2014-Sep-19 21:33N 45°38' W 122°43'0 0.0
2014-Sep-19 02:32N 45°38' W 122°43'1 0.2
2014-Sep-18 21:10N 45°38' W 122°42'  
2014-Sep-11 23:22N 45°34' W 122°44'5 0.2
2014-Sep-10 19:18N 45°38' W 122°43'1 1.2
2014-Sep-10 18:28N 45°38' W 122°42'3 0.5
2014-Sep-10 13:25N 45°39' W 122°45'2 0.2
2014-Sep-10 03:33N 45°38' W 122°42'1 0.8
2014-Sep-10 02:19N 45°39' W 122°44'0 0.6
2014-Sep-10 01:33N 45°38' W 122°43'0 0.0
2014-Sep-10 00:32N 45°38' W 122°43'  
Track history (hours):
 
Tides and Currents Weather Stations Pressure Air Temp Water Temp Dewpoint Dewpoint Depression Visibility Wind Speed Wind Dir Waves Ship Positions

Portland

More information available from US FCC via Universal Licensing System and Coast Guard Vessel Documentation Center.

Last reported at 2014-Sep-19 22:16 UTC. Time now 2014-Sep-21 18:12 UTC.
Position N 45°38' W 122°43'.

Length 27 m; draft 4 m.

Type: Towing. MMSI: 367315814.

Date/timePositionNaut miles runAvg speedWind from/ knotsBaromVisibWave heightAir tempDewpointWater temp
2014-Sep-19 22:16N 45°38' W 122°43'0 0.4
2014-Sep-19 21:33N 45°38' W 122°43'0 0.0
2014-Sep-19 02:32N 45°38' W 122°43'1 0.2
2014-Sep-18 21:10N 45°38' W 122°42'  
2014-Sep-11 23:22N 45°34' W 122°44'5 0.2
2014-Sep-10 19:18N 45°38' W 122°43'1 1.2
2014-Sep-10 18:28N 45°38' W 122°42'3 0.5
2014-Sep-10 13:25N 45°39' W 122°45'2 0.2
2014-Sep-10 03:33N 45°38' W 122°42'1 0.8
2014-Sep-10 02:19N 45°39' W 122°44'0 0.6
2014-Sep-10 01:33N 45°38' W 122°43'0 0.0
2014-Sep-10 00:32N 45°38' W 122°43'  

Dump ship's entire track history